Time;durP1;ratioP1;P1;durP2;ratioP2;P2;SDS_P1;SDS_P2;PMS_P1;PMS_P2;Temp;Humidity;BMP_temperature;BMP_pressure;BME280_temperature;BME280_humidity;BME280_pressure;Samples;Min_cycle;Max_cycle;Signal;HPM_P1;HPM_P2
2021/05/06 00:00:07;;;;;;;6.97;4.05;;;;;;;;;;5059038;28;20200;-68
2021/05/06 00:02:55;;;;;;;5.32;3.25;;;;;;;;;;5117327;28;20183;-68
2021/05/06 00:08:19;;;;;;;8.05;4.00;;;;;;;;;;5116280;28;20189;-68
2021/05/06 00:11:11;;;;;;;7.95;3.92;;;;;;;;;;5116349;28;20293;-68
2021/05/06 00:30:55;;;;;;;6.03;4.35;;;;;;;;;;5058393;27;20211;-68
2021/05/06 00:33:21;;;;;;;13.90;4.43;;;;;;;;;;5115949;28;20204;-68
2021/05/06 00:35:49;;;;;;;9.25;5.15;;;;;;;;;;5116729;28;20197;-68
2021/05/06 00:38:19;;;;;;;6.75;4.93;;;;;;;;;;5117065;28;20194;-67
2021/05/06 00:40:57;;;;;;;13.13;5.55;;;;;;;;;;5116318;28;20229;-71
2021/05/06 00:43:52;;;;;;;11.52;5.85;;;;;;;;;;5116423;28;20187;-68
2021/05/06 00:46:39;;;;;;;8.90;5.60;;;;;;;;;;5116020;28;20281;-68
2021/05/06 00:54:46;;;;;;;7.50;5.60;;;;;;;;;;5081447;28;20204;-68
2021/05/06 00:57:14;;;;;;;7.97;5.40;;;;;;;;;;5116316;28;20189;-68
2021/05/06 01:00:12;;;;;;;8.18;6.00;;;;;;;;;;5115745;28;20279;-68
2021/05/06 01:03:04;;;;;;;11.80;6.35;;;;;;;;;;5115631;28;20197;-68
2021/05/06 01:05:32;;;;;;;10.20;5.85;;;;;;;;;;5114722;28;20213;-68
2021/05/06 01:08:04;;;;;;;8.00;5.93;;;;;;;;;;5115580;28;20193;-68
2021/05/06 01:13:17;;;;;;;9.00;7.47;;;;;;;;;;5112946;28;20191;-68
2021/05/06 01:15:44;;;;;;;8.90;6.88;;;;;;;;;;5115684;28;20596;-68
2021/05/06 01:18:11;;;;;;;11.45;6.40;;;;;;;;;;5115038;28;20197;-67
2021/05/06 01:20:42;;;;;;;10.23;7.30;;;;;;;;;;5114878;28;20271;-68
2021/05/06 01:23:09;;;;;;;9.65;7.03;;;;;;;;;;5115337;28;20181;-68
2021/05/06 01:25:36;;;;;;;11.77;7.25;;;;;;;;;;5114937;28;20232;-68
2021/05/06 01:28:06;;;;;;;14.45;7.70;;;;;;;;;;5115378;28;20242;-67
2021/05/06 01:30:36;;;;;;;9.85;8.30;;;;;;;;;;5115545;28;20589;-68
2021/05/06 01:33:07;;;;;;;7.25;6.60;;;;;;;;;;5115454;28;20185;-68
2021/05/06 01:35:37;;;;;;;15.30;8.65;;;;;;;;;;5114756;28;20193;-68
2021/05/06 01:38:21;;;;;;;11.50;8.65;;;;;;;;;;5115214;28;20185;-68
2021/05/06 01:43:41;;;;;;;9.80;7.85;;;;;;;;;;5114765;28;20184;-68
2021/05/06 01:49:29;;;;;;;10.57;8.65;;;;;;;;;;5078415;28;20194;-68
2021/05/06 01:57:35;;;;;;;11.98;7.97;;;;;;;;;;5114522;28;20188;-68
2021/05/06 02:00:05;;;;;;;11.27;9.05;;;;;;;;;;5114872;28;20235;-67
2021/05/06 02:02:31;;;;;;;12.38;10.27;;;;;;;;;;5115190;28;20546;-68
2021/05/06 02:04:58;;;;;;;10.77;8.38;;;;;;;;;;5114242;28;20196;-67
2021/05/06 02:07:25;;;;;;;11.35;8.80;;;;;;;;;;5114516;28;20193;-68
2021/05/06 02:09:52;;;;;;;15.05;9.23;;;;;;;;;;5114233;28;20757;-69
2021/05/06 02:12:19;;;;;;;15.75;8.15;;;;;;;;;;5114387;28;20211;-71
2021/05/06 02:14:51;;;;;;;14.40;10.35;;;;;;;;;;5114098;28;20638;-72
2021/05/06 02:17:18;;;;;;;11.43;8.55;;;;;;;;;;5114545;28;20219;-71
2021/05/06 02:19:47;;;;;;;11.43;10.23;;;;;;;;;;5114348;28;20250;-71
2021/05/06 02:22:15;;;;;;;11.55;9.65;;;;;;;;;;5114184;28;20258;-73
2021/05/06 02:24:41;;;;;;;14.05;11.32;;;;;;;;;;5114103;28;20552;-72
2021/05/06 02:27:09;;;;;;;10.98;9.18;;;;;;;;;;5114600;28;20291;-72
2021/05/06 02:29:36;;;;;;;13.52;11.55;;;;;;;;;;5113839;28;20199;-71
2021/05/06 02:32:03;;;;;;;17.63;11.90;;;;;;;;;;5114694;28;20523;-72
2021/05/06 02:34:29;;;;;;;14.23;12.82;;;;;;;;;;5114156;28;20242;-71
2021/05/06 02:36:56;;;;;;;15.70;12.85;;;;;;;;;;5114047;28;20645;-71
2021/05/06 02:39:23;;;;;;;21.25;12.88;;;;;;;;;;5114443;28;20189;-71
2021/05/06 02:41:49;;;;;;;10.70;9.48;;;;;;;;;;5114497;28;20228;-71
2021/05/06 02:44:17;;;;;;;14.93;12.82;;;;;;;;;;5114014;28;20197;-70
2021/05/06 02:46:43;;;;;;;13.52;11.32;;;;;;;;;;5113741;28;20201;-70
2021/05/06 02:49:10;;;;;;;21.00;12.00;;;;;;;;;;5114048;28;20521;-70
2021/05/06 02:51:40;;;;;;;13.30;10.85;;;;;;;;;;5114004;28;20560;-70
2021/05/06 02:54:07;;;;;;;15.10;11.40;;;;;;;;;;5114489;28;20184;-70
2021/05/06 02:56:40;;;;;;;17.77;11.80;;;;;;;;;;5113645;28;20196;-70
2021/05/06 02:59:35;;;;;;;15.57;11.57;;;;;;;;;;5114263;28;20268;-70
2021/05/06 03:04:48;;;;;;;13.25;10.48;;;;;;;;;;5113739;28;20221;-70
2021/05/06 03:07:19;;;;;;;18.58;12.77;;;;;;;;;;5113828;28;20189;-70
2021/05/06 03:09:57;;;;;;;11.98;10.65;;;;;;;;;;5114091;28;20186;-69
2021/05/06 03:23:21;;;;;;;12.70;9.43;;;;;;;;;;5113579;28;20184;-70
2021/05/06 03:25:48;;;;;;;11.00;9.82;;;;;;;;;;5113626;28;20266;-70
2021/05/06 03:28:22;;;;;;;13.00;9.30;;;;;;;;;;5116339;28;20220;-70
2021/05/06 03:31:07;;;;;;;15.20;9.95;;;;;;;;;;5117304;28;20701;-70
2021/05/06 03:42:00;;;;;;;16.10;11.80;;;;;;;;;;5117757;28;20232;-69
2021/05/06 03:44:34;;;;;;;10.77;9.27;;;;;;;;;;5117629;28;20305;-69
2021/05/06 03:47:22;;;;;;;11.80;10.00;;;;;;;;;;5117471;28;20275;-70
2021/05/06 04:14:50;;;;;;;18.02;11.32;;;;;;;;;;5116535;28;20181;-70
2021/05/06 04:17:26;;;;;;;12.48;11.18;;;;;;;;;;5116984;28;20276;-70
2021/05/06 04:36:46;;;;;;;13.85;11.15;;;;;;;;;;5116153;28;20568;-70
2021/05/06 04:39:16;;;;;;;12.43;11.07;;;;;;;;;;5115902;28;20189;-70
2021/05/06 04:41:48;;;;;;;10.80;9.60;;;;;;;;;;5115740;28;20241;-70
2021/05/06 04:55:11;;;;;;;13.30;10.02;;;;;;;;;;5115768;28;20176;-70
2021/05/06 05:06:03;;;;;;;8.73;7.82;;;;;;;;;;5072704;28;20198;-70
2021/05/06 05:08:33;;;;;;;9.70;8.40;;;;;;;;;;5105280;28;20245;-71
2021/05/06 05:11:18;;;;;;;10.07;8.68;;;;;;;;;;5116208;28;20204;-71
2021/05/06 05:19:45;;;;;;;8.05;7.22;;;;;;;;;;5115147;28;20184;-71
2021/05/06 05:25:01;;;;;;;10.55;9.50;;;;;;;;;;5112339;28;20281;-69
2021/05/06 05:27:29;;;;;;;10.82;9.52;;;;;;;;;;5104096;28;20205;-70
2021/05/06 05:29:55;;;;;;;11.48;9.05;;;;;;;;;;5095974;28;20284;-69
2021/05/06 05:32:22;;;;;;;10.30;9.30;;;;;;;;;;5114816;28;20203;-70
2021/05/06 05:34:55;;;;;;;9.95;8.80;;;;;;;;;;5115072;28;20214;-69
2021/05/06 05:37:24;;;;;;;10.95;9.77;;;;;;;;;;5113308;28;20270;-69
2021/05/06 05:40:00;;;;;;;10.57;9.48;;;;;;;;;;5113852;28;20197;-70
2021/05/06 05:42:36;;;;;;;10.80;9.57;;;;;;;;;;5115266;28;20299;-67
2021/05/06 05:56:33;;;;;;;9.63;8.63;;;;;;;;;;5078993;28;20197;-78
2021/05/06 05:58:59;;;;;;;10.38;9.27;;;;;;;;;;5091889;28;20292;-78
2021/05/06 06:01:28;;;;;;;13.02;10.63;;;;;;;;;;5101622;28;20220;-78
2021/05/06 06:03:55;;;;;;;10.90;9.90;;;;;;;;;;5114716;28;20584;-77
2021/05/06 06:06:21;;;;;;;12.10;10.18;;;;;;;;;;5114526;28;20227;-77
2021/05/06 06:08:48;;;;;;;12.35;11.05;;;;;;;;;;5114483;28;20219;-77
2021/05/06 06:11:15;;;;;;;11.45;10.35;;;;;;;;;;5114711;28;20630;-77
2021/05/06 06:13:42;;;;;;;10.32;9.07;;;;;;;;;;5114562;28;20196;-77
2021/05/06 06:16:12;;;;;;;13.40;10.32;;;;;;;;;;5114936;28;20253;-77
2021/05/06 06:18:45;;;;;;;16.65;10.60;;;;;;;;;;5114434;28;20220;-77
2021/05/06 06:21:17;;;;;;;12.18;9.80;;;;;;;;;;5114361;28;20300;-77
2021/05/06 06:23:44;;;;;;;10.02;9.02;;;;;;;;;;5114021;28;20181;-77
2021/05/06 06:26:11;;;;;;;11.55;9.57;;;;;;;;;;5114245;28;20349;-77
2021/05/06 06:28:39;;;;;;;11.85;9.10;;;;;;;;;;5114195;28;20205;-77
2021/05/06 06:31:12;;;;;;;12.73;10.13;;;;;;;;;;5114541;28;20298;-77
2021/05/06 06:33:40;;;;;;;12.57;9.85;;;;;;;;;;5114539;28;20519;-74
2021/05/06 06:36:07;;;;;;;12.07;10.88;;;;;;;;;;5114137;28;20196;-76
2021/05/06 06:38:33;;;;;;;12.60;11.40;;;;;;;;;;5114361;28;20197;-76
2021/05/06 06:41:00;;;;;;;11.93;10.30;;;;;;;;;;5113858;28;20225;-76
2021/05/06 06:43:27;;;;;;;13.60;11.27;;;;;;;;;;5114022;28;20192;-76
2021/05/06 06:45:54;;;;;;;12.38;9.98;;;;;;;;;;5114466;28;20220;-77
2021/05/06 06:48:20;;;;;;;12.90;10.43;;;;;;;;;;5114051;28;20216;-76
2021/05/06 06:50:48;;;;;;;13.70;10.65;;;;;;;;;;5114135;28;20193;-77
2021/05/06 06:53:16;;;;;;;12.10;10.90;;;;;;;;;;5113987;28;20228;-76
2021/05/06 06:55:43;;;;;;;15.38;12.00;;;;;;;;;;5113624;28;20197;-77
2021/05/06 06:58:12;;;;;;;13.88;11.60;;;;;;;;;;5114180;28;20205;-77
2021/05/06 07:00:38;;;;;;;13.32;11.80;;;;;;;;;;5113814;28;20231;-76
2021/05/06 07:03:06;;;;;;;13.90;12.00;;;;;;;;;;5116375;28;20200;-77
2021/05/06 07:05:32;;;;;;;12.60;10.40;;;;;;;;;;5118491;28;20193;-76
2021/05/06 07:08:17;;;;;;;16.50;12.57;;;;;;;;;;5117939;28;20244;-76
2021/05/06 07:10:46;;;;;;;12.75;11.45;;;;;;;;;;5118401;28;20562;-76
2021/05/06 07:13:13;;;;;;;12.38;10.85;;;;;;;;;;5117830;28;20203;-76
2021/05/06 07:15:40;;;;;;;14.05;12.43;;;;;;;;;;5117498;28;20284;-76
2021/05/06 07:18:08;;;;;;;15.05;11.95;;;;;;;;;;5117544;28;20229;-77
2021/05/06 07:20:35;;;;;;;12.82;11.52;;;;;;;;;;5117260;28;20201;-76
2021/05/06 07:23:01;;;;;;;15.40;11.48;;;;;;;;;;5117489;28;20195;-77
2021/05/06 07:25:28;;;;;;;14.77;11.40;;;;;;;;;;5117246;28;20189;-77
2021/05/06 07:27:56;;;;;;;13.73;12.38;;;;;;;;;;5117579;28;20610;-76
2021/05/06 07:30:23;;;;;;;13.30;12.00;;;;;;;;;;5117505;28;20216;-77
2021/05/06 07:32:49;;;;;;;10.93;8.45;;;;;;;;;;5117115;27;20193;-76
2021/05/06 07:35:16;;;;;;;13.25;11.13;;;;;;;;;;5117443;28;20295;-76
2021/05/06 07:37:43;;;;;;;12.20;10.45;;;;;;;;;;5117012;28;20288;-76
2021/05/06 07:40:10;;;;;;;12.23;11.02;;;;;;;;;;5117208;28;20239;-76
2021/05/06 07:42:39;;;;;;;11.63;10.43;;;;;;;;;;5118033;28;20224;-75
2021/05/06 07:45:07;;;;;;;11.80;10.60;;;;;;;;;;5117273;28;20198;-76
2021/05/06 07:47:34;;;;;;;8.40;7.50;;;;;;;;;;5117161;28;20592;-75
2021/05/06 07:50:01;;;;;;;9.73;8.75;;;;;;;;;;5116773;28;20238;-75
2021/05/06 07:52:28;;;;;;;9.63;8.60;;;;;;;;;;5117119;28;20285;-75
2021/05/06 07:54:56;;;;;;;10.75;9.65;;;;;;;;;;5116823;28;20664;-75
2021/05/06 07:57:23;;;;;;;10.73;9.07;;;;;;;;;;5116992;28;20372;-74
2021/05/06 07:59:50;;;;;;;19.75;9.77;;;;;;;;;;5117098;28;20335;-74
2021/05/06 08:02:17;;;;;;;11.00;9.90;;;;;;;;;;5116805;28;20209;-75
2021/05/06 08:04:44;;;;;;;10.32;9.32;;;;;;;;;;5117287;28;20189;-74
2021/05/06 08:07:11;;;;;;;9.77;8.77;;;;;;;;;;5116744;28;20196;-74
2021/05/06 08:09:38;;;;;;;10.63;9.48;;;;;;;;;;5117277;27;20284;-74
2021/05/06 08:12:05;;;;;;;11.73;9.02;;;;;;;;;;5116418;28;20277;-74
2021/05/06 08:14:32;;;;;;;9.68;8.77;;;;;;;;;;5115700;28;20198;-74
2021/05/06 08:16:59;;;;;;;8.98;8.02;;;;;;;;;;5116721;28;20223;-74
2021/05/06 08:19:27;;;;;;;11.85;10.63;;;;;;;;;;5116536;28;20219;-73
2021/05/06 08:21:53;;;;;;;10.85;9.80;;;;;;;;;;5116926;28;20308;-74
2021/05/06 08:24:20;;;;;;;11.48;10.05;;;;;;;;;;5116508;28;20552;-73
2021/05/06 08:26:47;;;;;;;11.05;10.02;;;;;;;;;;5116051;28;20281;-73
2021/05/06 08:29:14;;;;;;;9.57;8.68;;;;;;;;;;5116364;28;20190;-73
2021/05/06 08:31:40;;;;;;;10.82;9.40;;;;;;;;;;5116310;28;20290;-74
2021/05/06 08:34:07;;;;;;;9.40;8.60;;;;;;;;;;5115924;28;20193;-73
2021/05/06 08:36:35;;;;;;;10.35;9.35;;;;;;;;;;5116123;28;20201;-72
2021/05/06 08:39:03;;;;;;;10.98;9.65;;;;;;;;;;5116479;28;20197;-73
2021/05/06 08:41:30;;;;;;;12.35;10.27;;;;;;;;;;5115878;28;20229;-72
2021/05/06 08:43:59;;;;;;;10.27;9.27;;;;;;;;;;5115633;28;20196;-73
2021/05/06 08:46:32;;;;;;;13.25;11.13;;;;;;;;;;5116039;27;20241;-73
2021/05/06 08:48:59;;;;;;;10.80;9.70;;;;;;;;;;5115674;27;20221;-73
2021/05/06 08:51:28;;;;;;;9.43;8.43;;;;;;;;;;5115387;28;20334;-73
2021/05/06 08:53:56;;;;;;;8.80;8.00;;;;;;;;;;5115628;28;20251;-73
2021/05/06 08:56:23;;;;;;;9.30;8.35;;;;;;;;;;5115322;28;20722;-72
2021/05/06 08:58:51;;;;;;;11.43;10.43;;;;;;;;;;5115274;28;20648;-72
2021/05/06 09:01:18;;;;;;;10.07;9.07;;;;;;;;;;5115569;28;20229;-72
2021/05/06 09:03:45;;;;;;;8.35;7.55;;;;;;;;;;5115735;28;20199;-72
2021/05/06 09:06:16;;;;;;;13.38;9.00;;;;;;;;;;5115279;28;20193;-73
2021/05/06 09:08:44;;;;;;;8.55;7.72;;;;;;;;;;5115204;28;20206;-73
2021/05/06 09:11:12;;;;;;;8.98;8.07;;;;;;;;;;5115520;28;20589;-72
2021/05/06 09:13:39;;;;;;;9.35;8.25;;;;;;;;;;5115460;28;20195;-73
2021/05/06 09:16:06;;;;;;;8.63;7.82;;;;;;;;;;5116206;28;20583;-72
2021/05/06 09:18:36;;;;;;;6.50;4.75;;;;;;;;;;5115208;28;20224;-72
2021/05/06 09:21:04;;;;;;;9.55;8.05;;;;;;;;;;5114853;28;20218;-72
2021/05/06 09:23:31;;;;;;;10.25;8.73;;;;;;;;;;5115587;28;20199;-73
2021/05/06 09:26:01;;;;;;;9.45;7.82;;;;;;;;;;5113997;28;20190;-72
2021/05/06 09:28:29;;;;;;;9.60;8.75;;;;;;;;;;5115200;28;20240;-72
2021/05/06 09:30:57;;;;;;;10.00;9.02;;;;;;;;;;5115136;28;20283;-72
2021/05/06 09:33:28;;;;;;;10.27;8.50;;;;;;;;;;5114628;28;20198;-72
2021/05/06 09:35:55;;;;;;;12.65;8.40;;;;;;;;;;5114974;28;20284;-72
2021/05/06 09:38:26;;;;;;;8.45;7.50;;;;;;;;;;5115002;28;20342;-73
2021/05/06 09:40:53;;;;;;;8.45;7.65;;;;;;;;;;5115031;28;20580;-72
2021/05/06 09:43:23;;;;;;;11.23;7.50;;;;;;;;;;5115090;28;20643;-72
2021/05/06 09:45:51;;;;;;;12.05;9.55;;;;;;;;;;5114778;28;20559;-72
2021/05/06 09:48:20;;;;;;;14.55;10.05;;;;;;;;;;5114859;28;20195;-72
2021/05/06 09:50:51;;;;;;;12.90;8.70;;;;;;;;;;5114800;28;20196;-72
2021/05/06 09:53:18;;;;;;;11.48;9.55;;;;;;;;;;5114529;28;20187;-72
2021/05/06 09:55:46;;;;;;;10.40;9.40;;;;;;;;;;5114702;28;20614;-72
2021/05/06 09:58:17;;;;;;;8.65;7.75;;;;;;;;;;5114739;28;20552;-72
2021/05/06 10:00:44;;;;;;;9.38;8.23;;;;;;;;;;5114311;28;20274;-72
2021/05/06 10:03:13;;;;;;;9.20;7.30;;;;;;;;;;5114503;28;20193;-72
2021/05/06 10:05:40;;;;;;;7.60;6.93;;;;;;;;;;5114219;28;20195;-72
2021/05/06 10:08:07;;;;;;;6.78;6.03;;;;;;;;;;5114176;28;20282;-72
2021/05/06 10:10:35;;;;;;;8.70;5.93;;;;;;;;;;5114525;28;20304;-72
2021/05/06 10:13:02;;;;;;;6.28;5.13;;;;;;;;;;5114398;28;20198;-72
2021/05/06 10:15:29;;;;;;;9.45;6.03;;;;;;;;;;5114056;28;20233;-72
2021/05/06 10:17:56;;;;;;;7.20;6.50;;;;;;;;;;5114080;28;20195;-72
2021/05/06 10:20:25;;;;;;;6.40;5.80;;;;;;;;;;5114290;28;20200;-72
2021/05/06 10:22:52;;;;;;;6.68;5.90;;;;;;;;;;5114039;28;20643;-72
2021/05/06 10:25:21;;;;;;;8.15;7.45;;;;;;;;;;5114201;28;20203;-72
2021/05/06 10:27:48;;;;;;;7.07;6.38;;;;;;;;;;5114120;28;20207;-72
2021/05/06 10:30:16;;;;;;;7.93;5.88;;;;;;;;;;5113762;28;20200;-72
2021/05/06 10:32:43;;;;;;;7.13;6.50;;;;;;;;;;5114035;28;20210;-72
2021/05/06 10:35:11;;;;;;;7.18;6.10;;;;;;;;;;5114115;28;20503;-72
2021/05/06 10:37:40;;;;;;;6.82;6.13;;;;;;;;;;5113430;28;20192;-72
2021/05/06 10:40:25;;;;;;;6.82;6.22;;;;;;;;;;5113305;28;20225;-71
2021/05/06 10:42:53;;;;;;;7.65;6.85;;;;;;;;;;5113505;28;20203;-71
2021/05/06 10:45:33;;;;;;;6.55;5.95;;;;;;;;;;5113719;28;20209;-72
2021/05/06 10:48:00;;;;;;;7.82;6.82;;;;;;;;;;5113762;28;20247;-72
2021/05/06 10:50:32;;;;;;;7.93;6.95;;;;;;;;;;5113542;28;20200;-72
2021/05/06 10:53:01;;;;;;;7.40;6.70;;;;;;;;;;5113568;28;20194;-71
2021/05/06 10:55:42;;;;;;;7.93;6.50;;;;;;;;;;5113498;28;20194;-71
2021/05/06 10:58:27;;;;;;;9.15;7.57;;;;;;;;;;5112358;28;20294;-71
2021/05/06 11:01:05;;;;;;;9.93;7.38;;;;;;;;;;5103808;28;20195;-72
2021/05/06 11:03:33;;;;;;;9.45;8.50;;;;;;;;;;5114171;28;20186;-72
2021/05/06 11:06:00;;;;;;;9.90;7.70;;;;;;;;;;5113833;28;20203;-71
2021/05/06 11:08:28;;;;;;;8.57;7.78;;;;;;;;;;5113394;28;20199;-72
2021/05/06 11:11:22;;;;;;;9.30;8.30;;;;;;;;;;5113264;28;20283;-72
2021/05/06 11:14:06;;;;;;;8.30;6.38;;;;;;;;;;5077271;28;20199;-71
2021/05/06 11:16:33;;;;;;;7.45;6.60;;;;;;;;;;5113676;28;20669;-70
2021/05/06 11:19:01;;;;;;;7.70;7.00;;;;;;;;;;5113422;28;20674;-70
2021/05/06 11:21:38;;;;;;;10.57;8.40;;;;;;;;;;5113648;28;20219;-71
2021/05/06 11:24:17;;;;;;;10.75;9.02;;;;;;;;;;5113573;28;20198;-71
2021/05/06 11:27:07;;;;;;;8.32;7.50;;;;;;;;;;5113291;28;20185;-71
2021/05/06 11:29:37;;;;;;;8.32;7.63;;;;;;;;;;5113590;28;20184;-72
2021/05/06 11:32:04;;;;;;;8.63;7.20;;;;;;;;;;5113051;28;20199;-71
2021/05/06 11:34:39;;;;;;;9.27;8.27;;;;;;;;;;5113382;28;20460;-70
2021/05/06 11:37:13;;;;;;;8.30;7.60;;;;;;;;;;5113145;28;20964;-71
2021/05/06 11:39:51;;;;;;;10.93;8.57;;;;;;;;;;5113270;28;20476;-71
2021/05/06 11:42:17;;;;;;;8.13;7.43;;;;;;;;;;5113066;28;20470;-71
2021/05/06 11:45:04;;;;;;;8.30;7.60;;;;;;;;;;5113367;28;20200;-71
2021/05/06 11:47:30;;;;;;;9.23;8.33;;;;;;;;;;5113856;28;20519;-71
2021/05/06 11:49:57;;;;;;;11.27;8.05;;;;;;;;;;5117113;28;20835;-71
2021/05/06 11:52:32;;;;;;;9.48;8.57;;;;;;;;;;5117089;28;20199;-71
2021/05/06 11:54:59;;;;;;;9.17;8.27;;;;;;;;;;5116671;28;20195;-71
2021/05/06 11:57:26;;;;;;;7.73;7.03;;;;;;;;;;5116862;28;20533;-71
2021/05/06 11:59:53;;;;;;;8.70;7.90;;;;;;;;;;5117047;28;20500;-71
2021/05/06 12:02:24;;;;;;;9.53;8.53;;;;;;;;;;5116420;28;20481;-72
2021/05/06 12:04:52;;;;;;;7.80;7.07;;;;;;;;;;5116514;28;20945;-70
2021/05/06 12:07:20;;;;;;;9.30;8.20;;;;;;;;;;5116453;28;20438;-73
2021/05/06 12:09:47;;;;;;;7.80;7.00;;;;;;;;;;5116657;28;20433;-72
2021/05/06 12:12:21;;;;;;;9.70;7.97;;;;;;;;;;5116603;28;20599;-70
2021/05/06 12:14:48;;;;;;;9.27;8.30;;;;;;;;;;5116231;28;20421;-70
2021/05/06 12:17:18;;;;;;;8.20;7.50;;;;;;;;;;5116501;28;20485;-70
2021/05/06 12:19:46;;;;;;;8.73;7.93;;;;;;;;;;5116110;28;20433;-70
2021/05/06 12:22:13;;;;;;;10.10;8.83;;;;;;;;;;5116603;28;20831;-71
2021/05/06 12:24:41;;;;;;;8.60;7.80;;;;;;;;;;5116613;28;20935;-70
2021/05/06 12:27:18;;;;;;;13.13;11.63;;;;;;;;;;5115861;28;21006;-71
2021/05/06 12:29:45;;;;;;;9.10;8.20;;;;;;;;;;5116479;28;20438;-70
2021/05/06 12:32:19;;;;;;;10.13;9.23;;;;;;;;;;5116375;28;20445;-70
2021/05/06 12:34:46;;;;;;;9.57;8.67;;;;;;;;;;5116088;28;20435;-70
2021/05/06 12:37:13;;;;;;;7.90;7.20;;;;;;;;;;5116064;28;20438;-73
2021/05/06 12:39:40;;;;;;;7.63;6.90;;;;;;;;;;5115692;28;20434;-72
2021/05/06 12:42:08;;;;;;;8.70;7.80;;;;;;;;;;5115583;27;20573;-72
2021/05/06 12:44:35;;;;;;;8.97;8.10;;;;;;;;;;5116256;28;20430;-65
2021/05/06 12:47:13;;;;;;;8.03;7.27;;;;;;;;;;5116480;27;20469;-69
2021/05/06 12:49:39;;;;;;;8.97;8.10;;;;;;;;;;5116358;28;20468;-68
2021/05/06 12:52:06;;;;;;;8.93;7.73;;;;;;;;;;5115518;28;20447;-68
2021/05/06 12:54:36;;;;;;;8.03;7.13;;;;;;;;;;5115542;28;20466;-68
2021/05/06 12:57:14;;;;;;;8.83;8.00;;;;;;;;;;5115544;28;20590;-68
2021/05/06 12:59:47;;;;;;;8.10;7.30;;;;;;;;;;5115599;28;20521;-68
2021/05/06 13:02:15;;;;;;;8.20;7.40;;;;;;;;;;5115369;28;20477;-68
2021/05/06 13:04:43;;;;;;;8.60;7.70;;;;;;;;;;5112404;28;20446;-68
2021/05/06 13:07:10;;;;;;;8.17;7.37;;;;;;;;;;5103725;28;20479;-68
2021/05/06 13:09:40;;;;;;;8.37;7.47;;;;;;;;;;5094714;28;21001;-68
2021/05/06 13:12:11;;;;;;;9.60;8.20;;;;;;;;;;5094785;28;20423;-68
2021/05/06 13:14:48;;;;;;;8.97;8.00;;;;;;;;;;5094993;28;20443;-68
2021/05/06 13:17:30;;;;;;;9.03;8.23;;;;;;;;;;5094840;28;20517;-68
2021/05/06 13:19:57;;;;;;;9.87;8.10;;;;;;;;;;5094432;28;20431;-70
2021/05/06 13:22:25;;;;;;;7.13;6.50;;;;;;;;;;5094673;28;20951;-68
2021/05/06 13:24:52;;;;;;;8.47;7.67;;;;;;;;;;5094899;28;20509;-68
2021/05/06 13:27:20;;;;;;;8.33;7.50;;;;;;;;;;5094464;28;20936;-70
2021/05/06 13:29:48;;;;;;;8.73;7.90;;;;;;;;;;5094256;28;20561;-68
2021/05/06 13:32:15;;;;;;;8.73;7.93;;;;;;;;;;5094894;28;20435;-69
2021/05/06 13:34:54;;;;;;;9.17;8.17;;;;;;;;;;5094129;28;20439;-68
2021/05/06 13:37:21;;;;;;;7.90;7.10;;;;;;;;;;5094622;28;20432;-68
2021/05/06 13:39:48;;;;;;;8.40;7.60;;;;;;;;;;5093777;28;20924;-68
2021/05/06 13:42:16;;;;;;;11.93;8.33;;;;;;;;;;5094010;28;21047;-68
2021/05/06 13:44:43;;;;;;;8.53;7.63;;;;;;;;;;5093994;28;20959;-69
2021/05/06 13:47:10;;;;;;;8.63;7.93;;;;;;;;;;5094379;28;20808;-69
2021/05/06 13:49:37;;;;;;;7.67;6.93;;;;;;;;;;5094336;28;20892;-69
2021/05/06 13:52:05;;;;;;;7.77;7.07;;;;;;;;;;5093961;28;20447;-69
2021/05/06 13:54:32;;;;;;;14.93;7.57;;;;;;;;;;5094052;28;21038;-69
2021/05/06 13:56:59;;;;;;;7.20;6.37;;;;;;;;;;5094056;28;20443;-67
2021/05/06 13:59:26;;;;;;;8.87;8.00;;;;;;;;;;5094778;28;20519;-68
2021/05/06 14:01:54;;;;;;;8.30;7.50;;;;;;;;;;5093699;28;20551;-69
2021/05/06 14:04:21;;;;;;;8.63;7.83;;;;;;;;;;5094183;28;20443;-68
2021/05/06 14:06:48;;;;;;;8.63;7.80;;;;;;;;;;5093740;28;20436;-68
2021/05/06 14:09:16;;;;;;;21.57;18.80;;;;;;;;;;5093507;28;20983;-68
2021/05/06 14:11:43;;;;;;;8.60;7.80;;;;;;;;;;5093685;28;20464;-68
2021/05/06 14:14:11;;;;;;;9.47;8.07;;;;;;;;;;5093606;28;20534;-68
2021/05/06 14:16:38;;;;;;;8.23;7.53;;;;;;;;;;5093539;28;20436;-68
2021/05/06 14:19:06;;;;;;;12.30;7.60;;;;;;;;;;5093565;28;21052;-68
2021/05/06 14:21:34;;;;;;;8.10;7.50;;;;;;;;;;5093440;28;20480;-68
2021/05/06 14:24:00;;;;;;;9.20;7.60;;;;;;;;;;5093390;28;20479;-68
2021/05/06 14:26:28;;;;;;;7.10;6.50;;;;;;;;;;5093376;28;20524;-69
2021/05/06 14:28:55;;;;;;;7.73;6.30;;;;;;;;;;5093374;28;20445;-68
2021/05/06 14:31:22;;;;;;;7.40;6.80;;;;;;;;;;5093474;28;20909;-68
2021/05/06 14:33:54;;;;;;;8.47;7.70;;;;;;;;;;5093787;28;20447;-68
2021/05/06 14:36:21;;;;;;;7.67;6.77;;;;;;;;;;5093170;28;20523;-68
2021/05/06 14:38:48;;;;;;;8.30;7.50;;;;;;;;;;5093711;28;20440;-69
2021/05/06 14:41:14;;;;;;;8.37;7.50;;;;;;;;;;5093384;28;20558;-68
2021/05/06 14:43:42;;;;;;;8.37;7.57;;;;;;;;;;5093482;28;20510;-68
2021/05/06 14:46:09;;;;;;;8.10;7.30;;;;;;;;;;5093799;28;20831;-68
2021/05/06 14:48:41;;;;;;;10.23;8.20;;;;;;;;;;5093667;28;20902;-68
2021/05/06 14:51:07;;;;;;;8.50;7.70;;;;;;;;;;5093276;28;20432;-67
2021/05/06 14:53:34;;;;;;;9.73;8.83;;;;;;;;;;5093483;28;20471;-67
2021/05/06 14:56:02;;;;;;;8.37;7.60;;;;;;;;;;5093541;28;20777;-66
2021/05/06 14:58:30;;;;;;;9.90;8.07;;;;;;;;;;5093949;28;20444;-67
2021/05/06 15:00:58;;;;;;;8.40;7.50;;;;;;;;;;5093073;28;20954;-67
2021/05/06 15:03:24;;;;;;;9.23;8.33;;;;;;;;;;5093540;28;20566;-67
2021/05/06 15:05:51;;;;;;;9.40;8.50;;;;;;;;;;5093341;28;20493;-68
2021/05/06 15:08:18;;;;;;;9.87;8.73;;;;;;;;;;5093222;28;20800;-67
2021/05/06 15:10:45;;;;;;;7.90;7.20;;;;;;;;;;5093163;28;20450;-68
2021/05/06 15:13:11;;;;;;;7.87;7.00;;;;;;;;;;5092941;28;20933;-67
2021/05/06 15:15:38;;;;;;;11.63;7.20;;;;;;;;;;5092923;28;20543;-67
2021/05/06 15:18:06;;;;;;;8.40;7.30;;;;;;;;;;5093371;28;20446;-67
2021/05/06 15:20:33;;;;;;;7.90;7.10;;;;;;;;;;5093151;28;20440;-68
2021/05/06 15:23:01;;;;;;;12.07;7.67;;;;;;;;;;5093640;28;20486;-67
2021/05/06 15:25:28;;;;;;;9.87;7.23;;;;;;;;;;5096727;28;20440;-67
2021/05/06 15:27:55;;;;;;;5.70;5.20;;;;;;;;;;5097029;28;20522;-68
2021/05/06 15:30:22;;;;;;;6.10;5.60;;;;;;;;;;5097141;28;20523;-67
2021/05/06 15:32:49;;;;;;;8.63;7.73;;;;;;;;;;5096389;28;20471;-68
2021/05/06 15:35:18;;;;;;;6.17;5.67;;;;;;;;;;5096840;28;20565;-68
2021/05/06 15:37:45;;;;;;;6.07;5.57;;;;;;;;;;5095995;28;20439;-67
2021/05/06 15:40:14;;;;;;;6.67;6.07;;;;;;;;;;5096245;28;20530;-68
2021/05/06 15:42:51;;;;;;;6.20;4.73;;;;;;;;;;5096413;28;20467;-68
2021/05/06 15:45:18;;;;;;;5.87;5.40;;;;;;;;;;5096908;28;20426;-68
2021/05/06 15:47:45;;;;;;;5.97;5.47;;;;;;;;;;5096373;28;20928;-68
2021/05/06 15:50:12;;;;;;;9.77;7.37;;;;;;;;;;5096166;28;20476;-68
2021/05/06 15:52:40;;;;;;;7.20;5.90;;;;;;;;;;5096150;28;20447;-68
2021/05/06 15:55:08;;;;;;;5.70;5.20;;;;;;;;;;5096155;28;20469;-68
2021/05/06 15:57:36;;;;;;;6.97;6.30;;;;;;;;;;5096865;28;20795;-68
2021/05/06 16:00:03;;;;;;;6.27;5.70;;;;;;;;;;5096401;28;20812;-68
2021/05/06 16:02:30;;;;;;;5.80;5.30;;;;;;;;;;5096064;28;21044;-68
2021/05/06 16:04:57;;;;;;;6.83;4.90;;;;;;;;;;5096205;28;20444;-68
2021/05/06 16:07:24;;;;;;;6.40;5.80;;;;;;;;;;5096136;28;20443;-69
2021/05/06 16:09:52;;;;;;;6.10;5.50;;;;;;;;;;5096148;28;20539;-68
2021/05/06 16:12:18;;;;;;;7.43;5.57;;;;;;;;;;5096296;28;20869;-68
2021/05/06 16:14:45;;;;;;;5.30;4.90;;;;;;;;;;5096598;28;20448;-69
2021/05/06 16:17:12;;;;;;;5.83;5.33;;;;;;;;;;5096184;28;21005;-68
2021/05/06 16:19:39;;;;;;;5.47;5.07;;;;;;;;;;5096769;28;20441;-69
2021/05/06 16:22:06;;;;;;;6.90;6.30;;;;;;;;;;5095778;28;20480;-69
2021/05/06 16:24:32;;;;;;;7.07;6.43;;;;;;;;;;5095763;28;20444;-69
2021/05/06 16:27:01;;;;;;;6.90;6.30;;;;;;;;;;5095595;28;20530;-68
2021/05/06 16:29:28;;;;;;;7.90;7.23;;;;;;;;;;5095588;28;20440;-68
2021/05/06 16:31:55;;;;;;;8.90;7.40;;;;;;;;;;5095284;28;20448;-69
2021/05/06 16:34:23;;;;;;;8.70;7.73;;;;;;;;;;5095044;28;20444;-69
2021/05/06 16:36:55;;;;;;;8.60;7.53;;;;;;;;;;5095857;28;20905;-68
2021/05/06 16:39:31;;;;;;;8.67;7.87;;;;;;;;;;5096353;28;20854;-68
2021/05/06 16:42:02;;;;;;;8.50;7.70;;;;;;;;;;5096343;28;20487;-68
2021/05/06 16:44:30;;;;;;;9.50;8.57;;;;;;;;;;5095267;28;20451;-68
2021/05/06 16:47:01;;;;;;;9.17;8.27;;;;;;;;;;5095574;28;20526;-68
2021/05/06 16:49:29;;;;;;;8.20;7.40;;;;;;;;;;5095768;28;20777;-70
2021/05/06 16:51:56;;;;;;;10.23;9.33;;;;;;;;;;5095140;28;20447;-69
2021/05/06 16:54:22;;;;;;;8.50;7.73;;;;;;;;;;5095405;28;20559;-67
2021/05/06 16:56:50;;;;;;;9.57;7.33;;;;;;;;;;5095374;28;20493;-68
2021/05/06 16:59:17;;;;;;;8.53;7.73;;;;;;;;;;5095238;28;20475;-68
2021/05/06 17:01:45;;;;;;;7.90;7.20;;;;;;;;;;5095108;28;20432;-68
2021/05/06 17:04:12;;;;;;;9.63;8.60;;;;;;;;;;5095325;28;20470;-68
2021/05/06 17:06:39;;;;;;;8.40;7.80;;;;;;;;;;5104672;28;20440;-68
2021/05/06 17:09:06;;;;;;;8.83;7.53;;;;;;;;;;5095638;28;20924;-68
2021/05/06 17:11:33;;;;;;;7.00;6.40;;;;;;;;;;5095486;28;20539;-68